sensor_id;sensor_type;location;lat;lon;timestamp;temperature;humidity
20171;DHT22;10245;51.344;6.620;2023-11-21T00:02:19;7.90;92.40
20171;DHT22;10245;51.344;6.620;2023-11-21T00:04:43;7.90;92.30
20171;DHT22;10245;51.344;6.620;2023-11-21T00:07:07;8.00;92.70
20171;DHT22;10245;51.344;6.620;2023-11-21T00:09:30;8.00;92.40
20171;DHT22;10245;51.344;6.620;2023-11-21T00:11:54;8.00;92.70
20171;DHT22;10245;51.344;6.620;2023-11-21T00:14:17;8.00;92.40
20171;DHT22;10245;51.344;6.620;2023-11-21T00:16:40;8.10;92.60
20171;DHT22;10245;51.344;6.620;2023-11-21T00:19:04;8.20;92.40
20171;DHT22;10245;51.344;6.620;2023-11-21T00:21:28;8.20;92.00
20171;DHT22;10245;51.344;6.620;2023-11-21T00:23:52;8.20;92.30
20171;DHT22;10245;51.344;6.620;2023-11-21T00:26:15;8.30;92.10
20171;DHT22;10245;51.344;6.620;2023-11-21T00:28:44;8.30;92.30
20171;DHT22;10245;51.344;6.620;2023-11-21T00:31:08;8.30;92.30
20171;DHT22;10245;51.344;6.620;2023-11-21T00:33:32;8.30;92.00
20171;DHT22;10245;51.344;6.620;2023-11-21T00:35:55;8.40;92.10
20171;DHT22;10245;51.344;6.620;2023-11-21T00:38:20;8.40;91.90
20171;DHT22;10245;51.344;6.620;2023-11-21T00:40:43;8.50;92.20
20171;DHT22;10245;51.344;6.620;2023-11-21T00:43:06;8.50;92.00
20171;DHT22;10245;51.344;6.620;2023-11-21T00:45:30;8.40;91.80
20171;DHT22;10245;51.344;6.620;2023-11-21T00:47:53;8.30;92.10
20171;DHT22;10245;51.344;6.620;2023-11-21T00:50:16;8.30;92.20
20171;DHT22;10245;51.344;6.620;2023-11-21T00:52:39;8.40;92.50
20171;DHT22;10245;51.344;6.620;2023-11-21T00:55:05;8.50;92.20
20171;DHT22;10245;51.344;6.620;2023-11-21T00:57:29;8.50;92.00
20171;DHT22;10245;51.344;6.620;2023-11-21T00:59:52;8.50;92.20
20171;DHT22;10245;51.344;6.620;2023-11-21T01:02:17;8.50;92.30
20171;DHT22;10245;51.344;6.620;2023-11-21T01:04:40;8.40;92.20
20171;DHT22;10245;51.344;6.620;2023-11-21T01:07:04;8.40;92.20
20171;DHT22;10245;51.344;6.620;2023-11-21T01:09:27;8.50;92.40
20171;DHT22;10245;51.344;6.620;2023-11-21T01:11:53;8.50;91.70
20171;DHT22;10245;51.344;6.620;2023-11-21T01:14:16;8.50;91.70
20171;DHT22;10245;51.344;6.620;2023-11-21T01:16:39;8.40;92.10
20171;DHT22;10245;51.344;6.620;2023-11-21T01:19:03;8.40;92.30
20171;DHT22;10245;51.344;6.620;2023-11-21T01:21:27;8.40;92.30
20171;DHT22;10245;51.344;6.620;2023-11-21T01:23:51;8.40;92.20
20171;DHT22;10245;51.344;6.620;2023-11-21T01:26:14;8.40;92.40
20171;DHT22;10245;51.344;6.620;2023-11-21T01:28:39;8.50;92.40
20171;DHT22;10245;51.344;6.620;2023-11-21T01:31:04;8.50;92.40
20171;DHT22;10245;51.344;6.620;2023-11-21T01:33:29;8.60;92.30
20171;DHT22;10245;51.344;6.620;2023-11-21T01:35:52;8.50;92.30
20171;DHT22;10245;51.344;6.620;2023-11-21T01:38:16;8.50;92.50
20171;DHT22;10245;51.344;6.620;2023-11-21T01:40:40;8.50;92.60
20171;DHT22;10245;51.344;6.620;2023-11-21T01:43:03;8.50;92.50
20171;DHT22;10245;51.344;6.620;2023-11-21T01:45:28;8.50;92.50
20171;DHT22;10245;51.344;6.620;2023-11-21T01:47:54;8.50;92.30
20171;DHT22;10245;51.344;6.620;2023-11-21T01:50:19;8.60;92.30
20171;DHT22;10245;51.344;6.620;2023-11-21T01:52:45;8.50;92.30
20171;DHT22;10245;51.344;6.620;2023-11-21T01:55:11;8.50;92.40
20171;DHT22;10245;51.344;6.620;2023-11-21T01:57:48;8.50;92.40
20171;DHT22;10245;51.344;6.620;2023-11-21T02:00:13;8.60;92.50
20171;DHT22;10245;51.344;6.620;2023-11-21T02:02:39;8.60;92.50
20171;DHT22;10245;51.344;6.620;2023-11-21T02:05:03;8.60;92.30
20171;DHT22;10245;51.344;6.620;2023-11-21T02:07:27;8.70;92.30
20171;DHT22;10245;51.344;6.620;2023-11-21T02:09:50;8.80;92.30
20171;DHT22;10245;51.344;6.620;2023-11-21T02:12:13;8.80;92.30
20171;DHT22;10245;51.344;6.620;2023-11-21T02:14:37;8.80;92.10
20171;DHT22;10245;51.344;6.620;2023-11-21T02:17:01;8.60;92.10
20171;DHT22;10245;51.344;6.620;2023-11-21T02:19:27;8.80;92.40
20171;DHT22;10245;51.344;6.620;2023-11-21T02:21:52;8.70;92.00
20171;DHT22;10245;51.344;6.620;2023-11-21T02:24:18;8.60;92.00
20171;DHT22;10245;51.344;6.620;2023-11-21T02:26:42;8.80;92.30
20171;DHT22;10245;51.344;6.620;2023-11-21T02:29:05;8.70;92.10
20171;DHT22;10245;51.344;6.620;2023-11-21T02:31:32;8.70;92.20
20171;DHT22;10245;51.344;6.620;2023-11-21T02:33:55;8.70;92.20
20171;DHT22;10245;51.344;6.620;2023-11-21T02:36:19;8.70;92.50
20171;DHT22;10245;51.344;6.620;2023-11-21T02:38:43;8.70;92.80
20171;DHT22;10245;51.344;6.620;2023-11-21T02:41:08;8.60;92.90
20171;DHT22;10245;51.344;6.620;2023-11-21T02:43:31;8.70;93.10
20171;DHT22;10245;51.344;6.620;2023-11-21T02:45:55;8.80;92.80
20171;DHT22;10245;51.344;6.620;2023-11-21T02:48:19;8.70;93.10
20171;DHT22;10245;51.344;6.620;2023-11-21T02:50:42;8.80;93.10
20171;DHT22;10245;51.344;6.620;2023-11-21T02:53:05;8.80;93.10
20171;DHT22;10245;51.344;6.620;2023-11-21T02:55:29;8.80;92.80
20171;DHT22;10245;51.344;6.620;2023-11-21T02:57:54;8.80;92.70
20171;DHT22;10245;51.344;6.620;2023-11-21T03:00:18;8.90;92.60
20171;DHT22;10245;51.344;6.620;2023-11-21T03:02:46;8.80;92.50
20171;DHT22;10245;51.344;6.620;2023-11-21T03:05:10;8.80;92.60
20171;DHT22;10245;51.344;6.620;2023-11-21T03:07:33;8.80;92.50
20171;DHT22;10245;51.344;6.620;2023-11-21T03:09:56;8.80;92.50
20171;DHT22;10245;51.344;6.620;2023-11-21T03:12:20;8.80;92.20
20171;DHT22;10245;51.344;6.620;2023-11-21T03:14:45;8.80;92.50
20171;DHT22;10245;51.344;6.620;2023-11-21T03:17:10;8.80;92.70
20171;DHT22;10245;51.344;6.620;2023-11-21T03:19:33;8.80;92.60
20171;DHT22;10245;51.344;6.620;2023-11-21T03:21:56;8.90;92.90
20171;DHT22;10245;51.344;6.620;2023-11-21T03:24:21;8.90;92.50
20171;DHT22;10245;51.344;6.620;2023-11-21T03:26:44;8.90;92.60
20171;DHT22;10245;51.344;6.620;2023-11-21T03:29:08;9.00;92.40
20171;DHT22;10245;51.344;6.620;2023-11-21T03:31:33;9.00;92.50
20171;DHT22;10245;51.344;6.620;2023-11-21T03:33:56;9.00;92.50
20171;DHT22;10245;51.344;6.620;2023-11-21T03:36:20;9.00;92.50
20171;DHT22;10245;51.344;6.620;2023-11-21T03:38:43;9.00;92.30
20171;DHT22;10245;51.344;6.620;2023-11-21T03:41:07;9.00;92.00
20171;DHT22;10245;51.344;6.620;2023-11-21T03:43:31;8.80;92.50
20171;DHT22;10245;51.344;6.620;2023-11-21T03:45:55;8.80;92.80
20171;DHT22;10245;51.344;6.620;2023-11-21T03:48:19;8.70;93.00
20171;DHT22;10245;51.344;6.620;2023-11-21T03:50:43;8.70;93.30
20171;DHT22;10245;51.344;6.620;2023-11-21T03:53:06;8.80;93.50
20171;DHT22;10245;51.344;6.620;2023-11-21T03:55:29;8.90;93.20
20171;DHT22;10245;51.344;6.620;2023-11-21T03:57:53;8.90;93.20
20171;DHT22;10245;51.344;6.620;2023-11-21T04:00:16;8.80;93.10
20171;DHT22;10245;51.344;6.620;2023-11-21T04:02:41;8.70;92.90
20171;DHT22;10245;51.344;6.620;2023-11-21T04:05:06;8.80;93.30
20171;DHT22;10245;51.344;6.620;2023-11-21T04:07:31;8.80;93.20
20171;DHT22;10245;51.344;6.620;2023-11-21T04:09:54;8.90;93.20
20171;DHT22;10245;51.344;6.620;2023-11-21T04:12:17;8.90;93.10
20171;DHT22;10245;51.344;6.620;2023-11-21T04:14:41;9.00;92.80
20171;DHT22;10245;51.344;6.620;2023-11-21T04:17:04;9.00;92.70
20171;DHT22;10245;51.344;6.620;2023-11-21T04:19:28;9.00;92.30
20171;DHT22;10245;51.344;6.620;2023-11-21T04:21:53;9.00;92.40
20171;DHT22;10245;51.344;6.620;2023-11-21T04:24:17;9.00;92.30
20171;DHT22;10245;51.344;6.620;2023-11-21T04:26:40;8.90;92.60
20171;DHT22;10245;51.344;6.620;2023-11-21T04:29:03;8.90;92.60
20171;DHT22;10245;51.344;6.620;2023-11-21T04:31:27;9.00;92.40
20171;DHT22;10245;51.344;6.620;2023-11-21T04:33:50;9.00;92.30
20171;DHT22;10245;51.344;6.620;2023-11-21T04:36:14;9.00;92.30
20171;DHT22;10245;51.344;6.620;2023-11-21T04:38:39;8.90;92.00
20171;DHT22;10245;51.344;6.620;2023-11-21T04:41:04;8.80;92.20
20171;DHT22;10245;51.344;6.620;2023-11-21T04:43:28;8.90;92.40
20171;DHT22;10245;51.344;6.620;2023-11-21T04:45:51;8.80;92.40
20171;DHT22;10245;51.344;6.620;2023-11-21T04:48:15;9.00;92.60
20171;DHT22;10245;51.344;6.620;2023-11-21T04:50:38;8.90;92.50
20171;DHT22;10245;51.344;6.620;2023-11-21T04:53:01;8.90;92.40
20171;DHT22;10245;51.344;6.620;2023-11-21T04:55:26;8.80;92.50
20171;DHT22;10245;51.344;6.620;2023-11-21T04:57:50;9.00;92.40
20171;DHT22;10245;51.344;6.620;2023-11-21T05:00:14;9.00;92.40
20171;DHT22;10245;51.344;6.620;2023-11-21T05:02:38;9.00;92.40
20171;DHT22;10245;51.344;6.620;2023-11-21T05:05:04;9.00;92.30
20171;DHT22;10245;51.344;6.620;2023-11-21T05:07:29;9.00;92.40
20171;DHT22;10245;51.344;6.620;2023-11-21T05:09:53;9.00;92.10
20171;DHT22;10245;51.344;6.620;2023-11-21T05:12:19;8.90;92.40
20171;DHT22;10245;51.344;6.620;2023-11-21T05:14:42;8.90;92.00
20171;DHT22;10245;51.344;6.620;2023-11-21T05:17:05;8.90;92.50
20171;DHT22;10245;51.344;6.620;2023-11-21T05:19:29;8.90;92.30
20171;DHT22;10245;51.344;6.620;2023-11-21T05:21:53;8.90;92.50
20171;DHT22;10245;51.344;6.620;2023-11-21T05:24:16;8.80;92.50
20171;DHT22;10245;51.344;6.620;2023-11-21T05:26:39;8.70;92.60
20171;DHT22;10245;51.344;6.620;2023-11-21T05:29:04;8.60;92.90
20171;DHT22;10245;51.344;6.620;2023-11-21T05:31:28;8.80;93.40
20171;DHT22;10245;51.344;6.620;2023-11-21T05:33:52;8.60;92.90
20171;DHT22;10245;51.344;6.620;2023-11-21T05:36:15;8.50;93.30
20171;DHT22;10245;51.344;6.620;2023-11-21T05:38:38;8.50;93.40
20171;DHT22;10245;51.344;6.620;2023-11-21T05:41:01;8.50;93.50
20171;DHT22;10245;51.344;6.620;2023-11-21T05:43:25;8.50;93.70
20171;DHT22;10245;51.344;6.620;2023-11-21T05:45:50;8.60;93.60
20171;DHT22;10245;51.344;6.620;2023-11-21T05:48:13;8.40;93.60
20171;DHT22;10245;51.344;6.620;2023-11-21T05:50:37;8.40;94.00
20171;DHT22;10245;51.344;6.620;2023-11-21T05:53:00;8.40;93.80
20171;DHT22;10245;51.344;6.620;2023-11-21T05:55:24;8.20;94.20
20171;DHT22;10245;51.344;6.620;2023-11-21T05:57:48;8.30;94.30
20171;DHT22;10245;51.344;6.620;2023-11-21T06:00:13;8.50;94.70
20171;DHT22;10245;51.344;6.620;2023-11-21T06:02:43;8.40;94.50
20171;DHT22;10245;51.344;6.620;2023-11-21T06:05:08;8.40;94.40
20171;DHT22;10245;51.344;6.620;2023-11-21T06:07:32;8.40;94.40
20171;DHT22;10245;51.344;6.620;2023-11-21T06:09:55;8.30;94.20
20171;DHT22;10245;51.344;6.620;2023-11-21T06:12:19;8.50;94.40
20171;DHT22;10245;51.344;6.620;2023-11-21T06:14:42;8.40;94.40
20171;DHT22;10245;51.344;6.620;2023-11-21T06:17:06;8.50;94.70
20171;DHT22;10245;51.344;6.620;2023-11-21T06:19:32;8.50;94.40
20171;DHT22;10245;51.344;6.620;2023-11-21T06:21:56;8.50;94.20
20171;DHT22;10245;51.344;6.620;2023-11-21T06:24:19;8.50;94.20
20171;DHT22;10245;51.344;6.620;2023-11-21T06:26:43;8.60;94.20
20171;DHT22;10245;51.344;6.620;2023-11-21T06:29:07;8.40;93.90
20171;DHT22;10245;51.344;6.620;2023-11-21T06:31:30;8.30;94.10
20171;DHT22;10245;51.344;6.620;2023-11-21T06:33:54;8.40;94.50
20171;DHT22;10245;51.344;6.620;2023-11-21T06:36:19;8.40;94.40
20171;DHT22;10245;51.344;6.620;2023-11-21T06:38:42;8.30;94.30
20171;DHT22;10245;51.344;6.620;2023-11-21T06:41:07;8.30;94.40
20171;DHT22;10245;51.344;6.620;2023-11-21T06:43:30;8.40;94.90
20171;DHT22;10245;51.344;6.620;2023-11-21T06:45:54;8.40;94.80
20171;DHT22;10245;51.344;6.620;2023-11-21T06:48:16;8.40;94.80
20171;DHT22;10245;51.344;6.620;2023-11-21T06:50:40;8.50;94.70
20171;DHT22;10245;51.344;6.620;2023-11-21T06:53:04;8.60;95.00
20171;DHT22;10245;51.344;6.620;2023-11-21T06:55:29;8.70;94.70
20171;DHT22;10245;51.344;6.620;2023-11-21T06:57:53;8.70;94.50
20171;DHT22;10245;51.344;6.620;2023-11-21T07:00:17;8.70;94.30
20171;DHT22;10245;51.344;6.620;2023-11-21T07:02:41;8.60;93.90
20171;DHT22;10245;51.344;6.620;2023-11-21T07:05:04;8.50;93.90
20171;DHT22;10245;51.344;6.620;2023-11-21T07:07:28;8.60;94.50
20171;DHT22;10245;51.344;6.620;2023-11-21T07:09:53;8.60;93.90
20171;DHT22;10245;51.344;6.620;2023-11-21T07:12:16;8.80;94.30
20171;DHT22;10245;51.344;6.620;2023-11-21T07:14:40;8.80;93.90
20171;DHT22;10245;51.344;6.620;2023-11-21T07:17:06;8.70;93.70
20171;DHT22;10245;51.344;6.620;2023-11-21T07:19:29;8.70;93.60
20171;DHT22;10245;51.344;6.620;2023-11-21T07:21:53;8.70;94.00
20171;DHT22;10245;51.344;6.620;2023-11-21T07:24:17;8.80;93.80
20171;DHT22;10245;51.344;6.620;2023-11-21T07:26:42;8.80;94.00
20171;DHT22;10245;51.344;6.620;2023-11-21T07:29:06;8.90;93.70
20171;DHT22;10245;51.344;6.620;2023-11-21T07:31:29;8.70;93.20
20171;DHT22;10245;51.344;6.620;2023-11-21T07:33:53;8.80;93.50
20171;DHT22;10245;51.344;6.620;2023-11-21T07:36:16;8.70;93.60
20171;DHT22;10245;51.344;6.620;2023-11-21T07:38:41;8.80;93.70
20171;DHT22;10245;51.344;6.620;2023-11-21T07:41:05;8.80;93.50
20171;DHT22;10245;51.344;6.620;2023-11-21T07:43:45;8.50;93.40
20171;DHT22;10245;51.344;6.620;2023-11-21T07:46:11;8.60;93.90
20171;DHT22;10245;51.344;6.620;2023-11-21T07:48:36;8.80;93.90
20171;DHT22;10245;51.344;6.620;2023-11-21T07:51:01;8.70;93.90
20171;DHT22;10245;51.344;6.620;2023-11-21T07:53:26;8.80;94.10
20171;DHT22;10245;51.344;6.620;2023-11-21T07:55:50;9.00;94.00
20171;DHT22;10245;51.344;6.620;2023-11-21T07:58:13;8.80;93.50
20171;DHT22;10245;51.344;6.620;2023-11-21T08:00:39;8.80;93.80
20171;DHT22;10245;51.344;6.620;2023-11-21T08:03:02;8.90;94.10
20171;DHT22;10245;51.344;6.620;2023-11-21T08:05:26;9.00;93.90
20171;DHT22;10245;51.344;6.620;2023-11-21T08:07:58;8.70;93.70
20171;DHT22;10245;51.344;6.620;2023-11-21T08:10:21;8.70;94.20
20171;DHT22;10245;51.344;6.620;2023-11-21T08:12:45;8.70;94.00
20171;DHT22;10245;51.344;6.620;2023-11-21T08:15:10;8.70;94.10
20171;DHT22;10245;51.344;6.620;2023-11-21T08:17:34;8.80;94.20
20171;DHT22;10245;51.344;6.620;2023-11-21T08:19:58;8.80;94.00
20171;DHT22;10245;51.344;6.620;2023-11-21T08:22:22;8.90;93.90
20171;DHT22;10245;51.344;6.620;2023-11-21T08:24:45;8.90;93.80
20171;DHT22;10245;51.344;6.620;2023-11-21T08:27:08;8.80;93.60
20171;DHT22;10245;51.344;6.620;2023-11-21T08:29:31;9.00;93.90
20171;DHT22;10245;51.344;6.620;2023-11-21T08:31:56;9.10;93.80
20171;DHT22;10245;51.344;6.620;2023-11-21T08:34:20;9.10;93.50
20171;DHT22;10245;51.344;6.620;2023-11-21T08:36:44;9.00;93.40
20171;DHT22;10245;51.344;6.620;2023-11-21T08:39:07;8.90;93.00
20171;DHT22;10245;51.344;6.620;2023-11-21T08:41:31;8.80;93.20
20171;DHT22;10245;51.344;6.620;2023-11-21T08:43:54;9.00;93.70
20171;DHT22;10245;51.344;6.620;2023-11-21T08:46:17;8.80;93.30
20171;DHT22;10245;51.344;6.620;2023-11-21T08:48:42;8.90;93.80
20171;DHT22;10245;51.344;6.620;2023-11-21T08:51:10;8.80;93.40
20171;DHT22;10245;51.344;6.620;2023-11-21T08:53:34;8.90;93.40
20171;DHT22;10245;51.344;6.620;2023-11-21T08:55:57;9.00;93.70
20171;DHT22;10245;51.344;6.620;2023-11-21T08:58:20;9.00;93.30
20171;DHT22;10245;51.344;6.620;2023-11-21T09:00:44;9.00;93.50
20171;DHT22;10245;51.344;6.620;2023-11-21T09:03:08;9.00;93.30
20171;DHT22;10245;51.344;6.620;2023-11-21T09:05:31;9.00;93.10
20171;DHT22;10245;51.344;6.620;2023-11-21T09:07:56;9.10;93.50
20171;DHT22;10245;51.344;6.620;2023-11-21T09:10:19;9.30;93.30
20171;DHT22;10245;51.344;6.620;2023-11-21T09:12:42;9.30;92.70
20171;DHT22;10245;51.344;6.620;2023-11-21T09:15:07;9.40;92.60
20171;DHT22;10245;51.344;6.620;2023-11-21T09:17:33;9.30;92.60
20171;DHT22;10245;51.344;6.620;2023-11-21T09:19:57;9.40;92.60
20171;DHT22;10245;51.344;6.620;2023-11-21T09:22:20;9.30;92.90
20171;DHT22;10245;51.344;6.620;2023-11-21T09:24:45;9.50;92.70
20171;DHT22;10245;51.344;6.620;2023-11-21T09:27:09;9.60;92.20
20171;DHT22;10245;51.344;6.620;2023-11-21T09:29:32;9.10;91.90
20171;DHT22;10245;51.344;6.620;2023-11-21T09:31:56;9.30;93.00
20171;DHT22;10245;51.344;6.620;2023-11-21T09:34:21;9.50;92.80
20171;DHT22;10245;51.344;6.620;2023-11-21T09:36:45;9.50;92.00
20171;DHT22;10245;51.344;6.620;2023-11-21T09:39:09;9.00;92.00
20171;DHT22;10245;51.344;6.620;2023-11-21T09:41:43;9.10;92.50
20171;DHT22;10245;51.344;6.620;2023-11-21T09:44:09;9.20;92.50
20171;DHT22;10245;51.344;6.620;2023-11-21T09:46:37;9.10;92.50
20171;DHT22;10245;51.344;6.620;2023-11-21T09:49:02;9.20;92.70
20171;DHT22;10245;51.344;6.620;2023-11-21T09:51:31;9.10;92.60
20171;DHT22;10245;51.344;6.620;2023-11-21T09:54:02;9.40;93.10
20171;DHT22;10245;51.344;6.620;2023-11-21T09:56:28;9.30;92.70
20171;DHT22;10245;51.344;6.620;2023-11-21T09:58:53;9.30;92.70
20171;DHT22;10245;51.344;6.620;2023-11-21T10:01:19;9.40;92.70
20171;DHT22;10245;51.344;6.620;2023-11-21T10:03:44;9.70;92.90
20171;DHT22;10245;51.344;6.620;2023-11-21T10:06:10;9.60;91.90
20171;DHT22;10245;51.344;6.620;2023-11-21T10:08:36;9.50;92.00
20171;DHT22;10245;51.344;6.620;2023-11-21T10:11:14;9.70;92.20
20171;DHT22;10245;51.344;6.620;2023-11-21T10:13:39;9.30;91.70
20171;DHT22;10245;51.344;6.620;2023-11-21T10:16:05;9.30;92.20
20171;DHT22;10245;51.344;6.620;2023-11-21T10:18:30;9.40;92.40
20171;DHT22;10245;51.344;6.620;2023-11-21T10:20:56;9.50;92.70
20171;DHT22;10245;51.344;6.620;2023-11-21T10:23:21;9.60;92.80
20171;DHT22;10245;51.344;6.620;2023-11-21T10:25:45;9.70;92.60
20171;DHT22;10245;51.344;6.620;2023-11-21T10:28:09;9.60;91.30
20171;DHT22;10245;51.344;6.620;2023-11-21T10:30:33;9.40;92.10
20171;DHT22;10245;51.344;6.620;2023-11-21T10:33:00;9.40;92.20
20171;DHT22;10245;51.344;6.620;2023-11-21T10:35:24;9.50;92.30
20171;DHT22;10245;51.344;6.620;2023-11-21T10:38:00;9.30;92.50
20171;DHT22;10245;51.344;6.620;2023-11-21T10:40:24;9.40;92.70
20171;DHT22;10245;51.344;6.620;2023-11-21T10:42:51;9.70;92.90
20171;DHT22;10245;51.344;6.620;2023-11-21T10:45:15;9.70;92.50
20171;DHT22;10245;51.344;6.620;2023-11-21T10:47:39;10.00;92.70
20171;DHT22;10245;51.344;6.620;2023-11-21T10:50:04;9.90;92.20
20171;DHT22;10245;51.344;6.620;2023-11-21T10:52:30;10.00;92.20
20171;DHT22;10245;51.344;6.620;2023-11-21T10:54:55;10.00;92.00
20171;DHT22;10245;51.344;6.620;2023-11-21T10:57:21;10.10;91.80
20171;DHT22;10245;51.344;6.620;2023-11-21T10:59:47;10.00;91.40
20171;DHT22;10245;51.344;6.620;2023-11-21T11:02:19;10.10;91.40
20171;DHT22;10245;51.344;6.620;2023-11-21T11:04:49;10.20;91.70
20171;DHT22;10245;51.344;6.620;2023-11-21T11:07:14;10.00;91.00
20171;DHT22;10245;51.344;6.620;2023-11-21T11:09:39;10.10;91.10
20171;DHT22;10245;51.344;6.620;2023-11-21T11:12:03;10.20;91.20
20171;DHT22;10245;51.344;6.620;2023-11-21T11:14:28;10.20;90.70
20171;DHT22;10245;51.344;6.620;2023-11-21T11:16:54;10.10;90.90
20171;DHT22;10245;51.344;6.620;2023-11-21T11:19:18;10.10;91.00
20171;DHT22;10245;51.344;6.620;2023-11-21T11:21:47;10.40;91.40
20171;DHT22;10245;51.344;6.620;2023-11-21T11:27:23;10.40;90.60
20171;DHT22;10245;51.344;6.620;2023-11-21T11:30:04;10.10;90.20
20171;DHT22;10245;51.344;6.620;2023-11-21T11:32:40;10.10;91.60
20171;DHT22;10245;51.344;6.620;2023-11-21T11:35:12;10.10;91.30
20171;DHT22;10245;51.344;6.620;2023-11-21T11:37:41;10.20;91.50
20171;DHT22;10245;51.344;6.620;2023-11-21T11:40:08;10.50;91.10
20171;DHT22;10245;51.344;6.620;2023-11-21T11:42:34;10.50;90.50
20171;DHT22;10245;51.344;6.620;2023-11-21T11:44:57;10.60;90.80
20171;DHT22;10245;51.344;6.620;2023-11-21T11:47:23;10.60;90.70
20171;DHT22;10245;51.344;6.620;2023-11-21T11:50:00;10.70;90.30
20171;DHT22;10245;51.344;6.620;2023-11-21T11:52:36;10.60;90.10
20171;DHT22;10245;51.344;6.620;2023-11-21T11:55:04;10.80;90.60
20171;DHT22;10245;51.344;6.620;2023-11-21T11:57:31;10.60;89.50
20171;DHT22;10245;51.344;6.620;2023-11-21T12:00:15;10.60;90.20
20171;DHT22;10245;51.344;6.620;2023-11-21T12:02:41;10.50;90.10
20171;DHT22;10245;51.344;6.620;2023-11-21T12:05:09;10.70;90.70
20171;DHT22;10245;51.344;6.620;2023-11-21T12:07:42;10.50;90.80
20171;DHT22;10245;51.344;6.620;2023-11-21T12:10:07;10.60;90.80
20171;DHT22;10245;51.344;6.620;2023-11-21T12:12:34;10.70;90.40
20171;DHT22;10245;51.344;6.620;2023-11-21T12:14:57;10.50;90.00
20171;DHT22;10245;51.344;6.620;2023-11-21T12:17:22;10.80;90.70
20171;DHT22;10245;51.344;6.620;2023-11-21T12:19:45;10.80;90.20
20171;DHT22;10245;51.344;6.620;2023-11-21T12:22:08;10.60;89.70
20171;DHT22;10245;51.344;6.620;2023-11-21T12:24:31;10.70;90.10
20171;DHT22;10245;51.344;6.620;2023-11-21T12:26:55;10.80;90.60
20171;DHT22;10245;51.344;6.620;2023-11-21T12:29:20;10.90;90.30
20171;DHT22;10245;51.344;6.620;2023-11-21T12:31:43;10.60;90.10
20171;DHT22;10245;51.344;6.620;2023-11-21T12:34:08;10.50;89.80
20171;DHT22;10245;51.344;6.620;2023-11-21T12:36:33;10.40;90.40
20171;DHT22;10245;51.344;6.620;2023-11-21T12:38:58;10.50;91.40
20171;DHT22;10245;51.344;6.620;2023-11-21T12:41:22;10.70;90.80
20171;DHT22;10245;51.344;6.620;2023-11-21T12:43:46;10.60;90.30
20171;DHT22;10245;51.344;6.620;2023-11-21T12:46:11;10.70;90.20
20171;DHT22;10245;51.344;6.620;2023-11-21T12:48:37;10.60;90.60
20171;DHT22;10245;51.344;6.620;2023-11-21T12:51:01;10.80;90.50
20171;DHT22;10245;51.344;6.620;2023-11-21T12:53:25;10.70;90.10
20171;DHT22;10245;51.344;6.620;2023-11-21T12:55:55;10.70;90.80
20171;DHT22;10245;51.344;6.620;2023-11-21T12:58:20;10.80;90.80
20171;DHT22;10245;51.344;6.620;2023-11-21T13:00:46;10.90;90.20
20171;DHT22;10245;51.344;6.620;2023-11-21T13:03:14;10.80;90.20
20171;DHT22;10245;51.344;6.620;2023-11-21T13:05:40;10.80;90.70
20171;DHT22;10245;51.344;6.620;2023-11-21T13:08:09;10.80;90.40
20171;DHT22;10245;51.344;6.620;2023-11-21T13:10:35;10.50;90.70
20171;DHT22;10245;51.344;6.620;2023-11-21T13:13:01;10.70;90.90
20171;DHT22;10245;51.344;6.620;2023-11-21T13:15:27;10.70;90.90
20171;DHT22;10245;51.344;6.620;2023-11-21T13:17:53;10.70;90.50
20171;DHT22;10245;51.344;6.620;2023-11-21T13:20:19;10.60;90.60
20171;DHT22;10245;51.344;6.620;2023-11-21T13:22:48;10.80;91.00
20171;DHT22;10245;51.344;6.620;2023-11-21T13:25:13;10.80;90.70
20171;DHT22;10245;51.344;6.620;2023-11-21T13:27:39;10.70;90.20
20171;DHT22;10245;51.344;6.620;2023-11-21T13:30:05;10.80;90.80
20171;DHT22;10245;51.344;6.620;2023-11-21T13:32:32;10.90;90.40
20171;DHT22;10245;51.344;6.620;2023-11-21T13:34:56;10.90;90.60
20171;DHT22;10245;51.344;6.620;2023-11-21T13:37:22;10.80;89.90
20171;DHT22;10245;51.344;6.620;2023-11-21T13:39:46;10.80;90.30
20171;DHT22;10245;51.344;6.620;2023-11-21T13:42:13;10.90;91.00
20171;DHT22;10245;51.344;6.620;2023-11-21T13:44:38;10.80;90.80
20171;DHT22;10245;51.344;6.620;2023-11-21T13:47:06;10.80;91.30
20171;DHT22;10245;51.344;6.620;2023-11-21T13:49:30;10.90;91.40
20171;DHT22;10245;51.344;6.620;2023-11-21T13:51:57;10.80;91.30
20171;DHT22;10245;51.344;6.620;2023-11-21T13:54:24;10.80;91.60
20171;DHT22;10245;51.344;6.620;2023-11-21T13:56:47;10.70;91.60
20171;DHT22;10245;51.344;6.620;2023-11-21T13:59:12;10.60;92.10
20171;DHT22;10245;51.344;6.620;2023-11-21T14:01:43;10.60;92.30
20171;DHT22;10245;51.344;6.620;2023-11-21T14:04:16;10.60;92.10
20171;DHT22;10245;51.344;6.620;2023-11-21T14:06:53;10.50;92.40
20171;DHT22;10245;51.344;6.620;2023-11-21T14:09:18;10.50;92.50
20171;DHT22;10245;51.344;6.620;2023-11-21T14:11:49;10.50;92.30
20171;DHT22;10245;51.344;6.620;2023-11-21T14:14:14;10.50;92.00
20171;DHT22;10245;51.344;6.620;2023-11-21T14:16:39;10.50;92.40
20171;DHT22;10245;51.344;6.620;2023-11-21T14:19:04;10.50;93.10
20171;DHT22;10245;51.344;6.620;2023-11-21T14:21:37;10.50;92.90
20171;DHT22;10245;51.344;6.620;2023-11-21T14:24:00;10.50;92.80
20171;DHT22;10245;51.344;6.620;2023-11-21T14:26:24;10.50;92.90
20171;DHT22;10245;51.344;6.620;2023-11-21T14:28:49;10.50;92.70
20171;DHT22;10245;51.344;6.620;2023-11-21T14:31:13;10.50;92.90
20171;DHT22;10245;51.344;6.620;2023-11-21T14:33:38;10.50;92.80
20171;DHT22;10245;51.344;6.620;2023-11-21T14:36:03;10.50;92.70
20171;DHT22;10245;51.344;6.620;2023-11-21T14:38:26;10.50;92.90
20171;DHT22;10245;51.344;6.620;2023-11-21T14:40:50;10.50;92.90
20171;DHT22;10245;51.344;6.620;2023-11-21T14:43:13;10.50;92.90
20171;DHT22;10245;51.344;6.620;2023-11-21T14:45:37;10.40;92.90
20171;DHT22;10245;51.344;6.620;2023-11-21T14:48:01;10.40;92.80
20171;DHT22;10245;51.344;6.620;2023-11-21T14:50:30;10.30;92.30
20171;DHT22;10245;51.344;6.620;2023-11-21T14:53:12;10.30;93.00
20171;DHT22;10245;51.344;6.620;2023-11-21T14:55:35;10.10;92.50
20171;DHT22;10245;51.344;6.620;2023-11-21T14:58:14;10.10;92.90
20171;DHT22;10245;51.344;6.620;2023-11-21T15:00:47;10.10;92.70
20171;DHT22;10245;51.344;6.620;2023-11-21T15:03:13;10.20;93.20
20171;DHT22;10245;51.344;6.620;2023-11-21T15:05:59;10.10;92.80
20171;DHT22;10245;51.344;6.620;2023-11-21T15:08:40;10.20;93.10
20171;DHT22;10245;51.344;6.620;2023-11-21T15:11:05;10.10;92.70
20171;DHT22;10245;51.344;6.620;2023-11-21T15:13:31;10.10;92.70
20171;DHT22;10245;51.344;6.620;2023-11-21T15:15:55;10.10;93.00
20171;DHT22;10245;51.344;6.620;2023-11-21T15:18:25;10.10;92.70
20171;DHT22;10245;51.344;6.620;2023-11-21T15:20:48;10.10;92.90
20171;DHT22;10245;51.344;6.620;2023-11-21T15:23:12;10.20;92.80
20171;DHT22;10245;51.344;6.620;2023-11-21T15:25:35;10.10;93.10
20171;DHT22;10245;51.344;6.620;2023-11-21T15:27:59;10.00;92.80
20171;DHT22;10245;51.344;6.620;2023-11-21T15:30:22;10.00;92.70
20171;DHT22;10245;51.344;6.620;2023-11-21T15:32:48;10.00;92.40